sensor_id;sensor_type;location;lat;lon;timestamp;temperature;humidity
48836;DHT22;62581;47.342;7.908;2023-05-14T00:01:20;13.20;99.90
48836;DHT22;62581;47.342;7.908;2023-05-14T00:03:47;13.10;99.90
48836;DHT22;62581;47.342;7.908;2023-05-14T00:06:14;13.10;99.90
48836;DHT22;62581;47.342;7.908;2023-05-14T00:08:41;13.20;99.90
48836;DHT22;62581;47.342;7.908;2023-05-14T00:11:08;13.20;99.90
48836;DHT22;62581;47.342;7.908;2023-05-14T00:13:36;13.10;99.90
48836;DHT22;62581;47.342;7.908;2023-05-14T00:16:04;13.20;99.90
48836;DHT22;62581;47.342;7.908;2023-05-14T00:18:31;13.20;99.90
48836;DHT22;62581;47.342;7.908;2023-05-14T00:20:58;13.10;99.90
48836;DHT22;62581;47.342;7.908;2023-05-14T00:23:25;13.20;99.90
48836;DHT22;62581;47.342;7.908;2023-05-14T00:25:52;13.10;99.90
48836;DHT22;62581;47.342;7.908;2023-05-14T00:28:19;13.20;99.90
48836;DHT22;62581;47.342;7.908;2023-05-14T00:30:47;13.20;99.90
48836;DHT22;62581;47.342;7.908;2023-05-14T00:33:14;13.20;99.90
48836;DHT22;62581;47.342;7.908;2023-05-14T00:35:41;13.10;99.90
48836;DHT22;62581;47.342;7.908;2023-05-14T00:38:08;13.10;99.90
48836;DHT22;62581;47.342;7.908;2023-05-14T00:40:41;13.10;99.90
48836;DHT22;62581;47.342;7.908;2023-05-14T00:43:10;13.10;99.90
48836;DHT22;62581;47.342;7.908;2023-05-14T00:45:37;13.10;99.90
48836;DHT22;62581;47.342;7.908;2023-05-14T00:48:06;13.00;99.90
48836;DHT22;62581;47.342;7.908;2023-05-14T00:50:33;13.10;99.90
48836;DHT22;62581;47.342;7.908;2023-05-14T00:53:00;13.10;99.90
48836;DHT22;62581;47.342;7.908;2023-05-14T00:55:29;13.00;99.90
48836;DHT22;62581;47.342;7.908;2023-05-14T00:57:57;13.00;99.90
48836;DHT22;62581;47.342;7.908;2023-05-14T01:00:24;13.00;99.90
48836;DHT22;62581;47.342;7.908;2023-05-14T01:02:51;12.90;99.90
48836;DHT22;62581;47.342;7.908;2023-05-14T01:05:20;12.90;99.90
48836;DHT22;62581;47.342;7.908;2023-05-14T01:07:54;12.90;99.90
48836;DHT22;62581;47.342;7.908;2023-05-14T01:10:28;12.90;99.90
48836;DHT22;62581;47.342;7.908;2023-05-14T01:13:03;12.90;99.90
48836;DHT22;62581;47.342;7.908;2023-05-14T01:15:34;12.90;99.90
48836;DHT22;62581;47.342;7.908;2023-05-14T01:18:02;12.80;99.90
48836;DHT22;62581;47.342;7.908;2023-05-14T01:20:31;12.80;99.90
48836;DHT22;62581;47.342;7.908;2023-05-14T01:22:59;12.80;99.90
48836;DHT22;62581;47.342;7.908;2023-05-14T01:25:27;12.80;99.90
48836;DHT22;62581;47.342;7.908;2023-05-14T01:27:58;12.70;99.90
48836;DHT22;62581;47.342;7.908;2023-05-14T01:30:29;12.80;99.90
48836;DHT22;62581;47.342;7.908;2023-05-14T01:32:59;12.70;99.90
48836;DHT22;62581;47.342;7.908;2023-05-14T01:35:29;12.70;99.90
48836;DHT22;62581;47.342;7.908;2023-05-14T01:38:00;12.70;99.90
48836;DHT22;62581;47.342;7.908;2023-05-14T01:40:28;12.70;99.90
48836;DHT22;62581;47.342;7.908;2023-05-14T01:42:56;12.70;99.90
48836;DHT22;62581;47.342;7.908;2023-05-14T01:45:23;12.70;99.90
48836;DHT22;62581;47.342;7.908;2023-05-14T01:47:50;12.60;99.90
48836;DHT22;62581;47.342;7.908;2023-05-14T01:50:17;12.70;99.90
48836;DHT22;62581;47.342;7.908;2023-05-14T01:52:44;12.70;99.90
48836;DHT22;62581;47.342;7.908;2023-05-14T01:55:14;12.60;99.90
48836;DHT22;62581;47.342;7.908;2023-05-14T01:57:42;12.60;99.90
48836;DHT22;62581;47.342;7.908;2023-05-14T02:00:10;12.60;99.90
48836;DHT22;62581;47.342;7.908;2023-05-14T02:02:37;12.50;99.90
48836;DHT22;62581;47.342;7.908;2023-05-14T02:05:05;12.50;99.90
48836;DHT22;62581;47.342;7.908;2023-05-14T02:07:32;12.40;99.90
48836;DHT22;62581;47.342;7.908;2023-05-14T02:09:59;12.40;99.90
48836;DHT22;62581;47.342;7.908;2023-05-14T02:12:27;12.20;99.90
48836;DHT22;62581;47.342;7.908;2023-05-14T02:14:54;12.10;99.90
48836;DHT22;62581;47.342;7.908;2023-05-14T02:17:21;12.00;99.90
48836;DHT22;62581;47.342;7.908;2023-05-14T02:19:48;11.90;99.90
48836;DHT22;62581;47.342;7.908;2023-05-14T02:22:15;11.90;99.90
48836;DHT22;62581;47.342;7.908;2023-05-14T02:24:41;11.90;99.90
48836;DHT22;62581;47.342;7.908;2023-05-14T02:27:08;11.90;99.90
48836;DHT22;62581;47.342;7.908;2023-05-14T02:29:38;12.00;99.90
48836;DHT22;62581;47.342;7.908;2023-05-14T02:32:06;11.90;99.90
48836;DHT22;62581;47.342;7.908;2023-05-14T02:34:33;12.00;99.90
48836;DHT22;62581;47.342;7.908;2023-05-14T02:37:00;11.90;99.90
48836;DHT22;62581;47.342;7.908;2023-05-14T02:39:27;11.90;99.90
48836;DHT22;62581;47.342;7.908;2023-05-14T02:41:54;11.90;99.90
48836;DHT22;62581;47.342;7.908;2023-05-14T02:44:21;11.90;99.90
48836;DHT22;62581;47.342;7.908;2023-05-14T02:46:49;11.90;99.90
48836;DHT22;62581;47.342;7.908;2023-05-14T02:49:16;11.90;99.90
48836;DHT22;62581;47.342;7.908;2023-05-14T02:51:43;11.90;99.90
48836;DHT22;62581;47.342;7.908;2023-05-14T02:54:10;11.90;99.90
48836;DHT22;62581;47.342;7.908;2023-05-14T02:56:37;11.90;99.90
48836;DHT22;62581;47.342;7.908;2023-05-14T02:59:04;11.90;99.90
48836;DHT22;62581;47.342;7.908;2023-05-14T03:01:31;11.90;99.90
48836;DHT22;62581;47.342;7.908;2023-05-14T03:03:59;11.80;99.90
48836;DHT22;62581;47.342;7.908;2023-05-14T03:06:26;11.80;99.90
48836;DHT22;62581;47.342;7.908;2023-05-14T03:08:53;11.70;99.90
48836;DHT22;62581;47.342;7.908;2023-05-14T03:11:20;11.60;99.90
48836;DHT22;62581;47.342;7.908;2023-05-14T03:13:47;11.60;99.90
48836;DHT22;62581;47.342;7.908;2023-05-14T03:16:14;11.60;99.90
48836;DHT22;62581;47.342;7.908;2023-05-14T03:18:40;11.50;99.90
48836;DHT22;62581;47.342;7.908;2023-05-14T03:21:09;11.50;99.90
48836;DHT22;62581;47.342;7.908;2023-05-14T03:23:36;11.40;99.90
48836;DHT22;62581;47.342;7.908;2023-05-14T03:26:03;11.40;99.90
48836;DHT22;62581;47.342;7.908;2023-05-14T03:28:30;11.40;99.90
48836;DHT22;62581;47.342;7.908;2023-05-14T03:30:58;11.50;99.90
48836;DHT22;62581;47.342;7.908;2023-05-14T03:33:25;11.50;99.90
48836;DHT22;62581;47.342;7.908;2023-05-14T03:35:52;11.60;99.90
48836;DHT22;62581;47.342;7.908;2023-05-14T03:38:20;11.60;99.90
48836;DHT22;62581;47.342;7.908;2023-05-14T03:40:47;11.70;99.90
48836;DHT22;62581;47.342;7.908;2023-05-14T03:43:14;11.70;99.90
48836;DHT22;62581;47.342;7.908;2023-05-14T03:45:41;11.70;99.90
48836;DHT22;62581;47.342;7.908;2023-05-14T03:48:08;11.80;99.90
48836;DHT22;62581;47.342;7.908;2023-05-14T03:50:35;11.80;99.90
48836;DHT22;62581;47.342;7.908;2023-05-14T03:53:02;11.80;99.90
48836;DHT22;62581;47.342;7.908;2023-05-14T03:55:30;11.90;99.90
48836;DHT22;62581;47.342;7.908;2023-05-14T03:57:57;11.90;99.90
48836;DHT22;62581;47.342;7.908;2023-05-14T04:00:24;11.90;99.90
48836;DHT22;62581;47.342;7.908;2023-05-14T04:02:51;11.90;99.90
48836;DHT22;62581;47.342;7.908;2023-05-14T04:05:18;11.90;99.90
48836;DHT22;62581;47.342;7.908;2023-05-14T04:07:45;12.00;99.90
48836;DHT22;62581;47.342;7.908;2023-05-14T04:10:12;12.00;99.90
48836;DHT22;62581;47.342;7.908;2023-05-14T04:12:41;12.00;99.90
48836;DHT22;62581;47.342;7.908;2023-05-14T04:15:08;12.00;99.90
48836;DHT22;62581;47.342;7.908;2023-05-14T04:17:35;12.00;99.90
48836;DHT22;62581;47.342;7.908;2023-05-14T04:20:03;12.00;99.90
48836;DHT22;62581;47.342;7.908;2023-05-14T04:22:30;12.10;99.90
48836;DHT22;62581;47.342;7.908;2023-05-14T04:24:57;12.00;99.90
48836;DHT22;62581;47.342;7.908;2023-05-14T04:27:25;12.00;99.90
48836;DHT22;62581;47.342;7.908;2023-05-14T04:29:54;11.90;99.90
48836;DHT22;62581;47.342;7.908;2023-05-14T04:32:21;11.90;99.90
48836;DHT22;62581;47.342;7.908;2023-05-14T04:34:48;11.80;99.90
48836;DHT22;62581;47.342;7.908;2023-05-14T04:37:15;11.80;99.90
48836;DHT22;62581;47.342;7.908;2023-05-14T04:39:42;11.70;99.90
48836;DHT22;62581;47.342;7.908;2023-05-14T04:42:09;11.70;99.90
48836;DHT22;62581;47.342;7.908;2023-05-14T04:44:36;11.70;99.90
48836;DHT22;62581;47.342;7.908;2023-05-14T04:47:04;11.70;99.90
48836;DHT22;62581;47.342;7.908;2023-05-14T04:49:32;11.70;99.90
48836;DHT22;62581;47.342;7.908;2023-05-14T04:52:00;11.70;99.90
48836;DHT22;62581;47.342;7.908;2023-05-14T04:54:27;11.60;99.90
48836;DHT22;62581;47.342;7.908;2023-05-14T04:56:53;11.60;99.90
48836;DHT22;62581;47.342;7.908;2023-05-14T04:59:21;11.60;99.90
48836;DHT22;62581;47.342;7.908;2023-05-14T05:01:48;11.60;99.90
48836;DHT22;62581;47.342;7.908;2023-05-14T05:04:17;11.60;99.90
48836;DHT22;62581;47.342;7.908;2023-05-14T05:06:44;11.60;99.90
48836;DHT22;62581;47.342;7.908;2023-05-14T05:09:11;11.60;99.90
48836;DHT22;62581;47.342;7.908;2023-05-14T05:11:38;11.70;99.90
48836;DHT22;62581;47.342;7.908;2023-05-14T05:14:05;11.60;99.90
48836;DHT22;62581;47.342;7.908;2023-05-14T05:16:32;11.60;99.90
48836;DHT22;62581;47.342;7.908;2023-05-14T05:18:59;11.70;99.90
48836;DHT22;62581;47.342;7.908;2023-05-14T05:21:27;11.70;99.90
48836;DHT22;62581;47.342;7.908;2023-05-14T05:23:54;11.70;99.90
48836;DHT22;62581;47.342;7.908;2023-05-14T05:26:21;11.80;99.90
48836;DHT22;62581;47.342;7.908;2023-05-14T05:28:48;11.80;99.90
48836;DHT22;62581;47.342;7.908;2023-05-14T05:31:15;11.80;99.90
48836;DHT22;62581;47.342;7.908;2023-05-14T05:33:42;11.90;99.90
48836;DHT22;62581;47.342;7.908;2023-05-14T05:36:09;12.00;99.90
48836;DHT22;62581;47.342;7.908;2023-05-14T05:38:37;12.10;99.90
48836;DHT22;62581;47.342;7.908;2023-05-14T05:41:04;12.20;99.90
48836;DHT22;62581;47.342;7.908;2023-05-14T05:43:32;12.20;99.90
48836;DHT22;62581;47.342;7.908;2023-05-14T05:45:59;12.30;99.90
48836;DHT22;62581;47.342;7.908;2023-05-14T05:48:26;12.40;99.90
48836;DHT22;62581;47.342;7.908;2023-05-14T05:50:53;12.50;99.90
48836;DHT22;62581;47.342;7.908;2023-05-14T05:53:20;12.60;99.90
48836;DHT22;62581;47.342;7.908;2023-05-14T05:55:48;12.60;99.90
48836;DHT22;62581;47.342;7.908;2023-05-14T05:58:16;12.70;99.90
48836;DHT22;62581;47.342;7.908;2023-05-14T06:00:43;12.80;99.90
48836;DHT22;62581;47.342;7.908;2023-05-14T06:03:12;12.90;99.90
48836;DHT22;62581;47.342;7.908;2023-05-14T06:05:39;13.00;99.90
48836;DHT22;62581;47.342;7.908;2023-05-14T06:08:06;13.10;99.90
48836;DHT22;62581;47.342;7.908;2023-05-14T06:10:33;13.30;99.90
48836;DHT22;62581;47.342;7.908;2023-05-14T06:13:02;13.40;99.90
48836;DHT22;62581;47.342;7.908;2023-05-14T06:15:29;13.30;99.90
48836;DHT22;62581;47.342;7.908;2023-05-14T06:17:56;13.40;99.90
48836;DHT22;62581;47.342;7.908;2023-05-14T06:20:23;13.50;99.90
48836;DHT22;62581;47.342;7.908;2023-05-14T06:22:50;13.60;99.90
48836;DHT22;62581;47.342;7.908;2023-05-14T06:25:17;13.80;99.90
48836;DHT22;62581;47.342;7.908;2023-05-14T06:27:44;14.00;99.90
48836;DHT22;62581;47.342;7.908;2023-05-14T06:30:13;14.20;99.90
48836;DHT22;62581;47.342;7.908;2023-05-14T06:32:41;14.40;99.90
48836;DHT22;62581;47.342;7.908;2023-05-14T06:35:08;14.70;99.90
48836;DHT22;62581;47.342;7.908;2023-05-14T06:37:35;14.90;99.90
48836;DHT22;62581;47.342;7.908;2023-05-14T06:40:02;15.10;99.90
48836;DHT22;62581;47.342;7.908;2023-05-14T06:42:30;14.80;99.90
48836;DHT22;62581;47.342;7.908;2023-05-14T06:44:57;14.80;99.90
48836;DHT22;62581;47.342;7.908;2023-05-14T06:47:25;14.70;99.90
48836;DHT22;62581;47.342;7.908;2023-05-14T06:49:52;14.70;99.90
48836;DHT22;62581;47.342;7.908;2023-05-14T06:52:20;15.00;99.90
48836;DHT22;62581;47.342;7.908;2023-05-14T06:54:47;15.10;99.90
48836;DHT22;62581;47.342;7.908;2023-05-14T06:57:14;15.10;99.90
48836;DHT22;62581;47.342;7.908;2023-05-14T06:59:41;15.30;99.90
48836;DHT22;62581;47.342;7.908;2023-05-14T07:02:08;15.10;99.90
48836;DHT22;62581;47.342;7.908;2023-05-14T07:04:36;15.20;99.90
48836;DHT22;62581;47.342;7.908;2023-05-14T07:07:03;15.20;99.90
48836;DHT22;62581;47.342;7.908;2023-05-14T07:09:31;15.20;99.90
48836;DHT22;62581;47.342;7.908;2023-05-14T07:11:58;15.10;99.90
48836;DHT22;62581;47.342;7.908;2023-05-14T07:14:25;14.90;99.90
48836;DHT22;62581;47.342;7.908;2023-05-14T07:16:52;14.60;99.90
48836;DHT22;62581;47.342;7.908;2023-05-14T07:19:18;14.70;99.90
48836;DHT22;62581;47.342;7.908;2023-05-14T07:21:48;14.70;99.90
48836;DHT22;62581;47.342;7.908;2023-05-14T07:24:15;14.80;99.90
48836;DHT22;62581;47.342;7.908;2023-05-14T07:26:42;14.90;99.90
48836;DHT22;62581;47.342;7.908;2023-05-14T07:29:09;15.00;99.90
48836;DHT22;62581;47.342;7.908;2023-05-14T07:31:36;14.90;99.90
48836;DHT22;62581;47.342;7.908;2023-05-14T07:34:03;15.10;99.90
48836;DHT22;62581;47.342;7.908;2023-05-14T07:36:30;15.20;99.90
48836;DHT22;62581;47.342;7.908;2023-05-14T07:38:58;15.20;99.90
48836;DHT22;62581;47.342;7.908;2023-05-14T07:41:25;15.20;99.90
48836;DHT22;62581;47.342;7.908;2023-05-14T07:43:52;14.90;99.90
48836;DHT22;62581;47.342;7.908;2023-05-14T07:46:19;14.80;99.90
48836;DHT22;62581;47.342;7.908;2023-05-14T07:48:46;14.90;99.90
48836;DHT22;62581;47.342;7.908;2023-05-14T07:51:12;15.00;99.90
48836;DHT22;62581;47.342;7.908;2023-05-14T07:53:39;14.80;99.90
48836;DHT22;62581;47.342;7.908;2023-05-14T07:56:08;14.70;99.90
48836;DHT22;62581;47.342;7.908;2023-05-14T07:58:35;14.60;99.90
48836;DHT22;62581;47.342;7.908;2023-05-14T08:01:02;14.80;99.90
48836;DHT22;62581;47.342;7.908;2023-05-14T08:03:31;14.90;99.90
48836;DHT22;62581;47.342;7.908;2023-05-14T08:05:59;15.00;99.90
48836;DHT22;62581;47.342;7.908;2023-05-14T08:08:26;15.00;99.90
48836;DHT22;62581;47.342;7.908;2023-05-14T08:10:53;15.00;99.90
48836;DHT22;62581;47.342;7.908;2023-05-14T08:13:21;14.80;99.90
48836;DHT22;62581;47.342;7.908;2023-05-14T08:15:48;14.90;99.90
48836;DHT22;62581;47.342;7.908;2023-05-14T08:18:15;14.90;99.90
48836;DHT22;62581;47.342;7.908;2023-05-14T08:20:42;14.70;99.90
48836;DHT22;62581;47.342;7.908;2023-05-14T08:23:09;14.70;99.90
48836;DHT22;62581;47.342;7.908;2023-05-14T08:25:36;14.40;99.90
48836;DHT22;62581;47.342;7.908;2023-05-14T08:28:03;14.60;99.90
48836;DHT22;62581;47.342;7.908;2023-05-14T08:30:32;14.70;99.90
48836;DHT22;62581;47.342;7.908;2023-05-14T08:32:59;14.80;99.90
48836;DHT22;62581;47.342;7.908;2023-05-14T08:35:26;14.80;99.90
48836;DHT22;62581;47.342;7.908;2023-05-14T08:37:52;15.00;99.90
48836;DHT22;62581;47.342;7.908;2023-05-14T08:40:21;15.00;99.90
48836;DHT22;62581;47.342;7.908;2023-05-14T08:42:50;15.10;99.90
48836;DHT22;62581;47.342;7.908;2023-05-14T08:45:18;15.10;99.90
48836;DHT22;62581;47.342;7.908;2023-05-14T08:47:49;15.20;99.90
48836;DHT22;62581;47.342;7.908;2023-05-14T08:50:17;15.30;99.90
48836;DHT22;62581;47.342;7.908;2023-05-14T08:52:44;15.30;99.90
48836;DHT22;62581;47.342;7.908;2023-05-14T08:55:11;15.50;99.90
48836;DHT22;62581;47.342;7.908;2023-05-14T08:57:39;15.80;99.90
48836;DHT22;62581;47.342;7.908;2023-05-14T09:00:07;16.10;99.90
48836;DHT22;62581;47.342;7.908;2023-05-14T09:02:36;16.20;99.90
48836;DHT22;62581;47.342;7.908;2023-05-14T09:05:06;16.20;99.90
48836;DHT22;62581;47.342;7.908;2023-05-14T09:07:34;16.40;99.90
48836;DHT22;62581;47.342;7.908;2023-05-14T09:10:01;16.60;99.90
48836;DHT22;62581;47.342;7.908;2023-05-14T09:12:29;16.70;99.90
48836;DHT22;62581;47.342;7.908;2023-05-14T09:14:56;16.90;99.90
48836;DHT22;62581;47.342;7.908;2023-05-14T09:17:25;16.80;99.90
48836;DHT22;62581;47.342;7.908;2023-05-14T09:19:52;17.10;99.90
48836;DHT22;62581;47.342;7.908;2023-05-14T09:22:20;17.30;99.90
48836;DHT22;62581;47.342;7.908;2023-05-14T09:25:00;17.40;99.90
48836;DHT22;62581;47.342;7.908;2023-05-14T09:27:29;17.50;99.90
48836;DHT22;62581;47.342;7.908;2023-05-14T09:30:03;17.50;99.90
48836;DHT22;62581;47.342;7.908;2023-05-14T09:32:35;17.40;99.90
48836;DHT22;62581;47.342;7.908;2023-05-14T09:35:10;17.20;99.90
48836;DHT22;62581;47.342;7.908;2023-05-14T09:37:40;17.60;99.90
48836;DHT22;62581;47.342;7.908;2023-05-14T09:40:08;17.90;99.90
48836;DHT22;62581;47.342;7.908;2023-05-14T09:42:35;18.00;99.90
48836;DHT22;62581;47.342;7.908;2023-05-14T09:45:03;18.00;99.90
48836;DHT22;62581;47.342;7.908;2023-05-14T09:47:30;18.30;99.90
48836;DHT22;62581;47.342;7.908;2023-05-14T09:49:57;18.50;99.90
48836;DHT22;62581;47.342;7.908;2023-05-14T09:52:24;18.80;99.90
48836;DHT22;62581;47.342;7.908;2023-05-14T09:54:52;18.90;99.90
48836;DHT22;62581;47.342;7.908;2023-05-14T09:57:20;18.60;99.90
48836;DHT22;62581;47.342;7.908;2023-05-14T09:59:47;18.20;99.90
48836;DHT22;62581;47.342;7.908;2023-05-14T10:02:19;18.40;99.90
48836;DHT22;62581;47.342;7.908;2023-05-14T10:04:47;18.30;99.90
48836;DHT22;62581;47.342;7.908;2023-05-14T10:07:20;18.10;99.90
48836;DHT22;62581;47.342;7.908;2023-05-14T10:09:53;18.00;99.90
48836;DHT22;62581;47.342;7.908;2023-05-14T10:12:24;18.20;99.90
48836;DHT22;62581;47.342;7.908;2023-05-14T10:14:56;18.60;99.90
48836;DHT22;62581;47.342;7.908;2023-05-14T10:17:30;19.00;99.90
48836;DHT22;62581;47.342;7.908;2023-05-14T10:19:58;18.80;99.90
48836;DHT22;62581;47.342;7.908;2023-05-14T10:22:30;18.80;99.90
48836;DHT22;62581;47.342;7.908;2023-05-14T10:25:01;18.20;99.90
48836;DHT22;62581;47.342;7.908;2023-05-14T10:27:28;17.80;99.90
48836;DHT22;62581;47.342;7.908;2023-05-14T10:29:56;17.60;99.90
48836;DHT22;62581;47.342;7.908;2023-05-14T10:32:24;17.50;99.90
48836;DHT22;62581;47.342;7.908;2023-05-14T10:34:52;17.80;99.90
48836;DHT22;62581;47.342;7.908;2023-05-14T10:37:21;17.80;99.90
48836;DHT22;62581;47.342;7.908;2023-05-14T10:39:49;17.60;99.90
48836;DHT22;62581;47.342;7.908;2023-05-14T10:42:20;17.00;99.90
48836;DHT22;62581;47.342;7.908;2023-05-14T10:44:52;17.20;99.90
48836;DHT22;62581;47.342;7.908;2023-05-14T10:47:20;17.10;99.90
48836;DHT22;62581;47.342;7.908;2023-05-14T10:49:48;17.40;99.90
48836;DHT22;62581;47.342;7.908;2023-05-14T10:52:18;17.70;99.90
48836;DHT22;62581;47.342;7.908;2023-05-14T10:54:49;17.70;99.90
48836;DHT22;62581;47.342;7.908;2023-05-14T10:57:19;18.20;99.90
48836;DHT22;62581;47.342;7.908;2023-05-14T10:59:47;18.70;99.90
48836;DHT22;62581;47.342;7.908;2023-05-14T11:02:22;19.00;99.90
48836;DHT22;62581;47.342;7.908;2023-05-14T11:04:58;19.50;99.90
48836;DHT22;62581;47.342;7.908;2023-05-14T11:07:28;19.80;99.90
48836;DHT22;62581;47.342;7.908;2023-05-14T11:10:01;19.50;99.90
48836;DHT22;62581;47.342;7.908;2023-05-14T11:12:29;19.30;99.90
48836;DHT22;62581;47.342;7.908;2023-05-14T11:14:58;19.50;99.90
48836;DHT22;62581;47.342;7.908;2023-05-14T11:17:25;19.80;99.90
48836;DHT22;62581;47.342;7.908;2023-05-14T11:19:53;19.90;99.90
48836;DHT22;62581;47.342;7.908;2023-05-14T11:22:20;20.00;99.90
48836;DHT22;62581;47.342;7.908;2023-05-14T11:24:47;19.90;99.90
48836;DHT22;62581;47.342;7.908;2023-05-14T11:27:15;19.80;99.90
48836;DHT22;62581;47.342;7.908;2023-05-14T11:29:45;20.00;99.90
48836;DHT22;62581;47.342;7.908;2023-05-14T11:32:14;20.10;99.90
48836;DHT22;62581;47.342;7.908;2023-05-14T11:34:42;20.10;99.90
48836;DHT22;62581;47.342;7.908;2023-05-14T11:37:10;19.40;99.90
48836;DHT22;62581;47.342;7.908;2023-05-14T11:39:38;18.80;99.90
48836;DHT22;62581;47.342;7.908;2023-05-14T11:42:11;18.00;99.90
48836;DHT22;62581;47.342;7.908;2023-05-14T11:44:39;18.10;99.90
48836;DHT22;62581;47.342;7.908;2023-05-14T11:47:08;17.80;99.90
48836;DHT22;62581;47.342;7.908;2023-05-14T11:49:35;17.20;99.90
48836;DHT22;62581;47.342;7.908;2023-05-14T11:52:04;17.40;99.90
48836;DHT22;62581;47.342;7.908;2023-05-14T11:54:31;17.70;99.90
48836;DHT22;62581;47.342;7.908;2023-05-14T11:57:00;18.20;99.90
48836;DHT22;62581;47.342;7.908;2023-05-14T11:59:27;18.50;99.90
48836;DHT22;62581;47.342;7.908;2023-05-14T12:01:54;18.80;99.90
48836;DHT22;62581;47.342;7.908;2023-05-14T12:04:23;19.30;99.90
48836;DHT22;62581;47.342;7.908;2023-05-14T12:06:50;19.80;99.90
48836;DHT22;62581;47.342;7.908;2023-05-14T12:09:17;20.30;99.90
48836;DHT22;62581;47.342;7.908;2023-05-14T12:11:45;20.80;99.90
48836;DHT22;62581;47.342;7.908;2023-05-14T12:14:14;20.60;99.90
48836;DHT22;62581;47.342;7.908;2023-05-14T12:16:43;20.00;99.90
48836;DHT22;62581;47.342;7.908;2023-05-14T12:19:13;18.90;99.90
48836;DHT22;62581;47.342;7.908;2023-05-14T12:21:42;19.30;99.90
48836;DHT22;62581;47.342;7.908;2023-05-14T12:24:09;19.80;99.90
48836;DHT22;62581;47.342;7.908;2023-05-14T12:26:37;20.10;99.90
48836;DHT22;62581;47.342;7.908;2023-05-14T12:29:04;20.20;99.90
48836;DHT22;62581;47.342;7.908;2023-05-14T12:31:33;20.60;99.90
48836;DHT22;62581;47.342;7.908;2023-05-14T12:34:01;21.00;99.90
48836;DHT22;62581;47.342;7.908;2023-05-14T12:36:29;21.10;99.90
48836;DHT22;62581;47.342;7.908;2023-05-14T12:38:59;21.30;99.90
48836;DHT22;62581;47.342;7.908;2023-05-14T12:41:28;21.80;99.90
48836;DHT22;62581;47.342;7.908;2023-05-14T12:43:55;22.60;99.90
48836;DHT22;62581;47.342;7.908;2023-05-14T12:46:23;24.20;99.90
48836;DHT22;62581;47.342;7.908;2023-05-14T12:48:50;26.10;99.90
48836;DHT22;62581;47.342;7.908;2023-05-14T12:51:18;26.60;99.90
48836;DHT22;62581;47.342;7.908;2023-05-14T12:53:45;27.60;99.90
48836;DHT22;62581;47.342;7.908;2023-05-14T12:56:13;28.10;97.90
48836;DHT22;62581;47.342;7.908;2023-05-14T12:58:40;26.80;98.30
48836;DHT22;62581;47.342;7.908;2023-05-14T13:01:07;26.00;96.70
48836;DHT22;62581;47.342;7.908;2023-05-14T13:03:34;24.40;98.40
48836;DHT22;62581;47.342;7.908;2023-05-14T13:06:01;24.40;99.80
48836;DHT22;62581;47.342;7.908;2023-05-14T13:08:28;24.00;99.40
48836;DHT22;62581;47.342;7.908;2023-05-14T13:10:55;23.90;99.90
48836;DHT22;62581;47.342;7.908;2023-05-14T13:13:23;23.20;99.90
48836;DHT22;62581;47.342;7.908;2023-05-14T13:15:50;22.40;99.90
48836;DHT22;62581;47.342;7.908;2023-05-14T13:18:18;22.10;99.90
48836;DHT22;62581;47.342;7.908;2023-05-14T13:20:45;21.50;99.90
48836;DHT22;62581;47.342;7.908;2023-05-14T13:23:13;21.10;99.90
48836;DHT22;62581;47.342;7.908;2023-05-14T13:25:40;20.90;99.90
48836;DHT22;62581;47.342;7.908;2023-05-14T13:28:07;20.90;99.90
48836;DHT22;62581;47.342;7.908;2023-05-14T13:30:36;20.80;99.90
48836;DHT22;62581;47.342;7.908;2023-05-14T13:33:04;20.80;99.90
48836;DHT22;62581;47.342;7.908;2023-05-14T13:35:31;20.40;99.90
48836;DHT22;62581;47.342;7.908;2023-05-14T13:37:59;20.30;99.90
48836;DHT22;62581;47.342;7.908;2023-05-14T13:40:26;19.80;99.90
48836;DHT22;62581;47.342;7.908;2023-05-14T13:42:53;19.20;99.90
48836;DHT22;62581;47.342;7.908;2023-05-14T13:45:19;19.20;99.90
48836;DHT22;62581;47.342;7.908;2023-05-14T13:47:48;19.20;99.90
48836;DHT22;62581;47.342;7.908;2023-05-14T13:50:15;19.10;99.90
48836;DHT22;62581;47.342;7.908;2023-05-14T13:52:42;18.80;99.90
48836;DHT22;62581;47.342;7.908;2023-05-14T13:55:09;18.70;99.90
48836;DHT22;62581;47.342;7.908;2023-05-14T13:57:36;18.80;99.90
48836;DHT22;62581;47.342;7.908;2023-05-14T14:00:05;18.50;99.90
48836;DHT22;62581;47.342;7.908;2023-05-14T14:02:32;18.50;99.90
48836;DHT22;62581;47.342;7.908;2023-05-14T14:05:01;18.60;99.90
48836;DHT22;62581;47.342;7.908;2023-05-14T14:07:27;18.80;99.90
48836;DHT22;62581;47.342;7.908;2023-05-14T14:09:54;19.30;99.90
48836;DHT22;62581;47.342;7.908;2023-05-14T14:12:21;19.80;99.90
48836;DHT22;62581;47.342;7.908;2023-05-14T14:14:48;19.80;99.90
48836;DHT22;62581;47.342;7.908;2023-05-14T14:17:16;20.30;99.90
48836;DHT22;62581;47.342;7.908;2023-05-14T14:19:43;20.90;99.90
48836;DHT22;62581;47.342;7.908;2023-05-14T14:22:12;20.80;99.90
48836;DHT22;62581;47.342;7.908;2023-05-14T14:24:41;20.10;99.90
48836;DHT22;62581;47.342;7.908;2023-05-14T14:27:09;20.10;99.90
48836;DHT22;62581;47.342;7.908;2023-05-14T14:29:36;19.70;99.90
48836;DHT22;62581;47.342;7.908;2023-05-14T14:32:04;19.40;99.90
48836;DHT22;62581;47.342;7.908;2023-05-14T14:34:31;19.60;99.90
48836;DHT22;62581;47.342;7.908;2023-05-14T14:36:58;20.10;99.90
48836;DHT22;62581;47.342;7.908;2023-05-14T14:39:27;20.60;99.90
48836;DHT22;62581;47.342;7.908;2023-05-14T14:41:54;20.70;99.90
48836;DHT22;62581;47.342;7.908;2023-05-14T14:44:21;20.60;99.90
48836;DHT22;62581;47.342;7.908;2023-05-14T14:46:48;20.10;99.90
48836;DHT22;62581;47.342;7.908;2023-05-14T14:49:15;20.10;99.90
48836;DHT22;62581;47.342;7.908;2023-05-14T14:51:42;19.70;99.90
48836;DHT22;62581;47.342;7.908;2023-05-14T14:54:09;19.10;99.90
48836;DHT22;62581;47.342;7.908;2023-05-14T14:56:37;18.50;99.90
48836;DHT22;62581;47.342;7.908;2023-05-14T14:59:04;18.30;99.90
48836;DHT22;62581;47.342;7.908;2023-05-14T15:01:31;18.10;99.90
48836;DHT22;62581;47.342;7.908;2023-05-14T15:03:58;18.20;99.90
48836;DHT22;62581;47.342;7.908;2023-05-14T15:06:25;17.80;99.90
48836;DHT22;62581;47.342;7.908;2023-05-14T15:08:52;17.90;99.90
48836;DHT22;62581;47.342;7.908;2023-05-14T15:11:19;17.70;99.90
48836;DHT22;62581;47.342;7.908;2023-05-14T15:13:48;17.70;99.90
48836;DHT22;62581;47.342;7.908;2023-05-14T15:16:15;17.70;99.90
48836;DHT22;62581;47.342;7.908;2023-05-14T15:18:42;17.60;99.90
48836;DHT22;62581;47.342;7.908;2023-05-14T15:21:09;17.60;99.90
48836;DHT22;62581;47.342;7.908;2023-05-14T15:23:35;17.60;99.90
48836;DHT22;62581;47.342;7.908;2023-05-14T15:26:03;17.50;99.90
48836;DHT22;62581;47.342;7.908;2023-05-14T15:28:30;17.30;99.90
48836;DHT22;62581;47.342;7.908;2023-05-14T15:30:59;17.30;99.90
48836;DHT22;62581;47.342;7.908;2023-05-14T15:33:27;17.20;99.90